createdAt,value
2023-04-12T00:01:20.943Z,97261.34
2023-04-12T00:03:54.469Z,97280.56
2023-04-12T00:06:27.813Z,97268.16
2023-04-12T00:08:56.625Z,97269.31
2023-04-12T00:11:25.426Z,97277.19
2023-04-12T00:13:54.270Z,97278.16
2023-04-12T00:16:25.021Z,97272.88
2023-04-12T00:18:53.796Z,97264.34
2023-04-12T00:21:24.396Z,97274.16
2023-04-12T00:23:53.187Z,97268.25
2023-04-12T00:26:22.478Z,97271.66
2023-04-12T00:28:51.160Z,97266.44
2023-04-12T00:31:19.764Z,97258.91
2023-04-12T00:33:49.851Z,97257.16
2023-04-12T00:36:18.836Z,97256.41
2023-04-12T00:38:47.440Z,97246.97
2023-04-12T00:41:16.463Z,97220.22
2023-04-12T00:43:45.314Z,97238.03
2023-04-12T00:46:14.381Z,97234.72
2023-04-12T00:48:43.048Z,97235.56
2023-04-12T00:51:13.308Z,97202.88
2023-04-12T00:53:42.629Z,97226.88
2023-04-12T00:56:12.377Z,97221.72
2023-04-12T00:58:41.839Z,97229.75
2023-04-12T01:01:10.826Z,97226.34
2023-04-12T01:03:43.597Z,97226.47
2023-04-12T01:06:30.054Z,97220.97
2023-04-12T01:09:12.670Z,97200.31
2023-04-12T01:11:47.016Z,97201.28
2023-04-12T01:14:22.016Z,97208.88
2023-04-12T01:16:55.466Z,97192.69
2023-04-12T01:19:38.546Z,97213.41
2023-04-12T01:22:38.906Z,97203.97
2023-04-12T01:25:24.544Z,97173.88
2023-04-12T01:27:58.730Z,97210.75
2023-04-12T01:30:29.995Z,97208.94
2023-04-12T01:33:02.494Z,97211.38
2023-04-12T01:35:35.093Z,97207.88
2023-04-12T01:38:05.927Z,97202.63
2023-04-12T01:40:37.188Z,97198.16
2023-04-12T01:43:08.960Z,97200.88
2023-04-12T01:45:37.995Z,97134.19
2023-04-12T01:48:09.599Z,97203.50
2023-04-12T01:50:46.277Z,97174.16
2023-04-12T01:53:20.395Z,97182.78
2023-04-12T01:55:50.456Z,97181.06
2023-04-12T01:58:23.657Z,97194.72
2023-04-12T02:00:54.568Z,97180.97
2023-04-12T02:03:25.040Z,97185.09
2023-04-12T02:05:55.042Z,97185.81
2023-04-12T02:08:23.820Z,97177.84
2023-04-12T02:10:52.907Z,97174.44
2023-04-12T02:13:22.991Z,97164.44
2023-04-12T02:15:54.799Z,97186.06
2023-04-12T02:18:24.558Z,97174.81
2023-04-12T02:20:53.168Z,97158.91
2023-04-12T02:23:21.986Z,97171.25
2023-04-12T02:25:50.705Z,97168.81
2023-04-12T02:28:19.419Z,97155.13
2023-04-12T02:30:49.659Z,97162.69
2023-04-12T02:33:18.457Z,97145.69
2023-04-12T02:35:47.907Z,97161.34
2023-04-12T02:38:16.927Z,97156.22
2023-04-12T02:40:45.655Z,97162.50
2023-04-12T02:43:14.448Z,97172.28
2023-04-12T02:45:43.868Z,97154.44
2023-04-12T02:48:14.138Z,97116.81
2023-04-12T02:50:42.704Z,97156.16
2023-04-12T02:53:11.368Z,97158.06
2023-04-12T02:55:40.756Z,97158.19
2023-04-12T02:58:09.695Z,97159.16
2023-04-12T03:00:38.378Z,97132.72
2023-04-12T03:03:09.265Z,97149.88
2023-04-12T03:05:39.963Z,97149.97
2023-04-12T03:08:08.823Z,97147.53
2023-04-12T03:10:37.525Z,97137.25
2023-04-12T03:13:06.365Z,97144.22
2023-04-12T03:15:35.232Z,97135.59
2023-04-12T03:18:04.137Z,97129.72
2023-04-12T03:20:33.853Z,97140.88
2023-04-12T03:23:04.402Z,97136.75
2023-04-12T03:25:33.317Z,97133.38
2023-04-12T03:28:02.355Z,97104.56
2023-04-12T03:30:31.291Z,97139.75
2023-04-12T03:32:59.972Z,97140.56
2023-04-12T03:35:28.821Z,97128.44
2023-04-12T03:37:57.374Z,97133.75
2023-04-12T03:40:28.062Z,97108.75
2023-04-12T03:42:56.641Z,97126.03
2023-04-12T03:45:26.012Z,97128.78
2023-04-12T03:47:54.752Z,97120.50
2023-04-12T03:50:24.314Z,97092.28
2023-04-12T03:52:53.067Z,97148.50
2023-04-12T03:55:21.794Z,97108.59
2023-04-12T03:57:51.948Z,97144.09
2023-04-12T04:00:20.583Z,97140.25
2023-04-12T04:02:50.580Z,97144.56
2023-04-12T04:05:19.549Z,97147.03
2023-04-12T04:07:48.426Z,97119.41
2023-04-12T04:10:17.413Z,97089.34
2023-04-12T04:12:46.113Z,97139.06
2023-04-12T04:15:17.283Z,97135.47
2023-04-12T04:17:47.777Z,97118.28
2023-04-12T04:20:16.584Z,97007.59
2023-04-12T04:22:48.426Z,97138.69
2023-04-12T04:25:17.736Z,97146.53
2023-04-12T04:27:46.365Z,97144.75
2023-04-12T04:30:17.193Z,97140.53
2023-04-12T04:32:46.341Z,97147.09
2023-04-12T04:35:17.118Z,97148.91
2023-04-12T04:37:46.038Z,97102.56
2023-04-12T04:40:15.537Z,97143.63
2023-04-12T04:42:46.837Z,97146.09
2023-04-12T04:45:17.465Z,97146.09
2023-04-12T04:47:46.056Z,97147.78
2023-04-12T04:50:14.728Z,97143.41
2023-04-12T04:52:43.522Z,97133.97
2023-04-12T04:55:13.316Z,97153.38
2023-04-12T04:57:43.078Z,97153.78
2023-04-12T05:00:13.638Z,97143.25
2023-04-12T05:02:44.690Z,97146.88
2023-04-12T05:05:14.398Z,97154.16
2023-04-12T05:07:43.660Z,97136.72
2023-04-12T05:10:13.478Z,97169.34
2023-04-12T05:12:42.514Z,97168.56
2023-04-12T05:15:12.642Z,97164.31
2023-04-12T05:17:42.972Z,97157.44
2023-04-12T05:20:12.413Z,97163.59
2023-04-12T05:22:41.175Z,97140.94
2023-04-12T05:25:10.955Z,97134.69
2023-04-12T05:27:39.672Z,97144.59
2023-04-12T05:30:09.824Z,97150.47
2023-04-12T05:32:38.649Z,97154.66
2023-04-12T05:35:09.602Z,97153.69
2023-04-12T05:37:38.673Z,97162.50
2023-04-12T05:40:10.073Z,97141.78
2023-04-12T05:42:38.904Z,97158.94
2023-04-12T05:45:08.629Z,97160.22
2023-04-12T05:47:38.576Z,97160.34
2023-04-12T05:50:11.956Z,97155.66
2023-04-12T05:52:41.094Z,97148.31
2023-04-12T05:55:10.377Z,97151.03
2023-04-12T05:57:39.214Z,97151.78
2023-04-12T06:00:13.554Z,97141.81
2023-04-12T06:02:42.707Z,97141.72
2023-04-12T06:05:13.222Z,97136.59
2023-04-12T06:07:48.480Z,97142.25
2023-04-12T06:10:18.314Z,97119.53
2023-04-12T06:12:46.854Z,97126.41
2023-04-12T06:15:15.512Z,97150.41
2023-04-12T06:17:44.088Z,97126.59
2023-04-12T06:20:16.132Z,97142.38
2023-04-12T06:22:44.911Z,97137.81
2023-04-12T06:25:13.636Z,97123.03
2023-04-12T06:27:42.430Z,97132.41
2023-04-12T06:30:11.965Z,97143.53
2023-04-12T06:32:40.681Z,97134.66
2023-04-12T06:35:09.966Z,97094.50
2023-04-12T06:37:40.221Z,97136.13
2023-04-12T06:40:11.646Z,97125.72
2023-04-12T06:42:40.785Z,97130.22
2023-04-12T06:45:10.155Z,97083.31
2023-04-12T06:47:38.879Z,97125.25
2023-04-12T06:50:08.764Z,97113.88
2023-04-12T06:52:37.350Z,97114.66
2023-04-12T06:55:08.921Z,97111.59
2023-04-12T06:57:37.928Z,97103.81
2023-04-12T07:00:07.701Z,97092.63
2023-04-12T07:02:36.564Z,97069.22
2023-04-12T07:05:05.520Z,97100.56
2023-04-12T07:07:34.360Z,97099.41
2023-04-12T07:10:04.741Z,97082.09
2023-04-12T07:12:35.173Z,97093.94
2023-04-12T07:15:03.853Z,97080.22
2023-04-12T07:17:32.805Z,97086.88
2023-04-12T07:20:01.442Z,97059.88
2023-04-12T07:22:29.873Z,97066.78
2023-04-12T07:24:58.503Z,97064.88
2023-04-12T07:27:27.311Z,97063.94
2023-04-12T07:29:58.664Z,97062.25
2023-04-12T07:32:27.646Z,97055.25
2023-04-12T07:34:56.417Z,97054.59
2023-04-12T07:37:25.283Z,97032.22
2023-04-12T07:39:54.196Z,97034.94
2023-04-12T07:42:22.898Z,97035.75
2023-04-12T07:44:51.483Z,96995.63
2023-04-12T07:47:22.293Z,96990.31
2023-04-12T07:49:51.094Z,97031.56
2023-04-12T07:52:19.671Z,97035.00
2023-04-12T07:54:48.260Z,97025.69
2023-04-12T07:57:16.869Z,97047.59
2023-04-12T07:59:45.453Z,97051.75
2023-04-12T08:02:14.384Z,97042.09
2023-04-12T08:04:46.045Z,97039.53
2023-04-12T08:07:15.061Z,97032.88
2023-04-12T08:09:43.701Z,97030.41
2023-04-12T08:12:12.521Z,97031.63
2023-04-12T08:14:41.253Z,97026.59
2023-04-12T08:17:09.989Z,97024.84
2023-04-12T08:19:38.700Z,97015.84
2023-04-12T08:22:12.007Z,97027.50
2023-04-12T08:24:41.778Z,97023.25
2023-04-12T08:27:11.798Z,96995.31
2023-04-12T08:29:40.288Z,96997.75
2023-04-12T08:32:13.280Z,97011.78
2023-04-12T08:34:44.763Z,97008.00
2023-04-12T08:37:17.250Z,96975.00
2023-04-12T08:39:46.197Z,97002.72
2023-04-12T08:42:17.431Z,97001.56
2023-04-12T08:44:46.327Z,97005.41
2023-04-12T08:47:14.947Z,96984.00
2023-04-12T08:49:43.607Z,96986.81
2023-04-12T08:52:12.731Z,96976.00
2023-04-12T08:54:42.837Z,96979.25
2023-04-12T08:57:11.987Z,96982.81
2023-04-12T08:59:43.994Z,96976.38
2023-04-12T09:02:15.519Z,96973.75
2023-04-12T09:04:51.129Z,96974.09
2023-04-12T09:07:20.050Z,96977.25
2023-04-12T09:09:50.549Z,96970.75
2023-04-12T09:12:24.265Z,96963.97
2023-04-12T09:15:10.032Z,96951.78
2023-04-12T09:17:39.290Z,96962.78
2023-04-12T09:20:26.582Z,96954.72
2023-04-12T09:22:56.054Z,96955.56
2023-04-12T09:25:45.461Z,96946.22
2023-04-12T09:28:22.125Z,96894.81
2023-04-12T09:30:53.283Z,96940.06
2023-04-12T09:33:23.502Z,96935.09
2023-04-12T09:35:52.658Z,96932.44
2023-04-12T09:38:21.687Z,96918.72
2023-04-12T09:40:52.260Z,96897.75
2023-04-12T09:43:21.437Z,96915.44
2023-04-12T09:45:50.184Z,96915.13
2023-04-12T09:48:22.449Z,96911.22
2023-04-12T09:51:00.497Z,96912.16
2023-04-12T09:53:29.544Z,96897.59
2023-04-12T09:56:00.906Z,96898.53
2023-04-12T09:58:31.666Z,96877.34
2023-04-12T10:01:02.709Z,96854.31
2023-04-12T10:03:32.598Z,96896.50
2023-04-12T10:06:01.546Z,96892.63
2023-04-12T10:08:30.318Z,96892.28
2023-04-12T10:11:01.146Z,96886.72
2023-04-12T10:13:30.958Z,96865.09
2023-04-12T10:16:01.713Z,96873.59
2023-04-12T10:18:31.615Z,96872.38
2023-04-12T10:21:00.927Z,96866.22
2023-04-12T10:23:29.917Z,96858.13
2023-04-12T10:26:01.501Z,96858.06
2023-04-12T10:28:30.176Z,96848.84
2023-04-12T10:30:59.482Z,96840.63
2023-04-12T10:33:29.181Z,96830.03
2023-04-12T10:36:04.154Z,96832.94
2023-04-12T10:38:46.253Z,96822.78
2023-04-12T10:41:21.004Z,96780.97
2023-04-12T10:43:50.758Z,96836.25
2023-04-12T10:46:53.105Z,96836.09
2023-04-12T10:49:21.941Z,96826.91
2023-04-12T10:52:14.118Z,96825.47
2023-04-12T10:54:42.798Z,96822.66
2023-04-12T10:57:42.702Z,96811.38
2023-04-12T11:00:12.251Z,96766.47
2023-04-12T11:03:12.751Z,96791.16
2023-04-12T11:06:20.133Z,96784.81
2023-04-12T11:08:57.274Z,96768.09
2023-04-12T11:11:27.829Z,96762.09
2023-04-12T11:14:00.028Z,96777.03
2023-04-12T11:16:28.713Z,96768.78
2023-04-12T11:18:58.009Z,96744.34
2023-04-12T11:21:27.837Z,96776.06
2023-04-12T11:23:57.175Z,96765.09
2023-04-12T11:26:26.248Z,96676.13
2023-04-12T11:28:56.418Z,96773.13
2023-04-12T11:31:27.445Z,96765.41
2023-04-12T11:33:56.530Z,96748.03
2023-04-12T11:36:25.246Z,96757.56
2023-04-12T11:38:57.357Z,96742.56
2023-04-12T11:41:26.192Z,96754.00
2023-04-12T11:43:54.917Z,96715.81
2023-04-12T11:46:24.621Z,96737.13
2023-04-12T11:48:55.806Z,96725.94
2023-04-12T11:51:31.665Z,96731.56
2023-04-12T11:54:01.256Z,96731.41
2023-04-12T11:56:32.140Z,96725.66
2023-04-12T11:59:00.889Z,96678.56
2023-04-12T12:01:29.554Z,96731.50
2023-04-12T12:04:01.353Z,96734.13
2023-04-12T12:06:31.676Z,96712.31
2023-04-12T12:09:01.059Z,96724.91
2023-04-12T12:11:29.750Z,96719.28
2023-04-12T12:14:03.636Z,96704.91
2023-04-12T12:16:33.700Z,96708.72
2023-04-12T12:19:06.338Z,96704.53
2023-04-12T12:21:35.988Z,96700.66
2023-04-12T12:24:04.679Z,96696.56
2023-04-12T12:26:33.266Z,96697.41
2023-04-12T12:29:02.022Z,96677.84
2023-04-12T12:31:31.512Z,96677.06
2023-04-12T12:34:04.220Z,96667.13
2023-04-12T12:36:36.733Z,96672.84
2023-04-12T12:39:09.609Z,96662.69
2023-04-12T12:41:39.233Z,96641.41
2023-04-12T12:44:08.412Z,96652.09
2023-04-12T12:46:52.050Z,96638.31
2023-04-12T12:49:22.567Z,96636.09
2023-04-12T12:51:53.167Z,96627.31
2023-04-12T12:54:39.431Z,96622.53
2023-04-12T12:57:09.625Z,96617.28
2023-04-12T12:59:38.428Z,96584.34
2023-04-12T13:02:07.994Z,96593.16
2023-04-12T13:04:36.883Z,96605.38
2023-04-12T13:07:07.067Z,96567.56
2023-04-12T13:09:35.752Z,96585.53
2023-04-12T13:12:04.555Z,96595.97
2023-04-12T13:14:33.311Z,96593.84
2023-04-12T13:17:02.359Z,96593.56
2023-04-12T13:19:30.942Z,96600.75
2023-04-12T13:21:59.648Z,96595.06
2023-04-12T13:24:29.878Z,96589.41
2023-04-12T13:26:58.886Z,96586.66
2023-04-12T13:29:27.672Z,96592.78
2023-04-12T13:31:56.351Z,96578.06
2023-04-12T13:34:25.044Z,96574.34
2023-04-12T13:36:54.228Z,96579.28
2023-04-12T13:39:24.609Z,96575.63
2023-04-12T13:41:54.978Z,96576.50
2023-04-12T13:44:23.728Z,96566.56
2023-04-12T13:46:52.467Z,96573.84
2023-04-12T13:49:21.048Z,96553.41
2023-04-12T13:51:49.785Z,96546.91
2023-04-12T13:54:18.370Z,96556.84
2023-04-12T13:56:47.169Z,96548.81
2023-04-12T13:59:17.852Z,96529.44
2023-04-12T14:01:46.697Z,96510.31
2023-04-12T14:04:15.376Z,96540.59
2023-04-12T14:06:45.693Z,96528.59
2023-04-12T14:09:25.759Z,96413.16
2023-04-12T14:11:56.494Z,96509.28
2023-04-12T14:14:28.670Z,96510.47
2023-04-12T14:16:58.082Z,96516.97
2023-04-12T14:19:27.543Z,96503.19
2023-04-12T14:21:57.026Z,96498.56
2023-04-12T14:24:26.907Z,96494.97
2023-04-12T14:26:57.757Z,96502.19
2023-04-12T14:29:28.217Z,96502.53
2023-04-12T14:31:56.887Z,96471.28
2023-04-12T14:34:25.504Z,96487.09
2023-04-12T14:36:54.248Z,96478.50
2023-04-12T14:39:24.562Z,96483.00
2023-04-12T14:41:53.077Z,96479.19
2023-04-12T14:44:23.933Z,96442.84
2023-04-12T14:46:58.004Z,96485.41
2023-04-12T14:49:26.927Z,96487.22
2023-04-12T14:51:55.766Z,96484.09
2023-04-12T14:54:24.486Z,96484.69
2023-04-12T14:56:55.520Z,96474.13
2023-04-12T14:59:25.229Z,96083.81
2023-04-12T15:01:54.120Z,96473.16
2023-04-12T15:04:24.558Z,96481.19
2023-04-12T15:06:53.757Z,96476.81
2023-04-12T15:09:22.390Z,96481.16
2023-04-12T15:12:00.975Z,96444.06
2023-04-12T15:14:30.326Z,96482.16
2023-04-12T15:16:59.035Z,96475.28
2023-04-12T15:19:29.832Z,96477.31
2023-04-12T15:21:58.896Z,96471.13
2023-04-12T15:24:27.630Z,96478.91
2023-04-12T15:26:57.159Z,96474.94
2023-04-12T15:29:29.333Z,96466.16
2023-04-12T15:31:58.038Z,96357.19
2023-04-12T15:34:30.134Z,96469.78
2023-04-12T15:37:00.337Z,96468.09
2023-04-12T15:39:29.231Z,96463.88
2023-04-12T15:41:57.910Z,96460.00
2023-04-12T15:44:31.977Z,96454.81
2023-04-12T15:47:10.970Z,96434.72
2023-04-12T15:49:41.888Z,96455.25
2023-04-12T15:52:13.144Z,96458.31
2023-04-12T15:54:44.029Z,96451.59
2023-04-12T15:57:12.841Z,96447.19
2023-04-12T15:59:42.452Z,96456.63
2023-04-12T16:02:11.287Z,96452.50
2023-04-12T16:04:40.698Z,96442.69
2023-04-12T16:07:09.591Z,96453.16
2023-04-12T16:09:40.660Z,96447.50
2023-04-12T16:12:09.469Z,96456.41
2023-04-12T16:14:39.687Z,96375.81
2023-04-12T16:17:08.748Z,96422.91
2023-04-12T16:19:37.786Z,96454.56
2023-04-12T16:22:06.462Z,96447.47
2023-04-12T16:24:35.123Z,96455.91
2023-04-12T16:27:05.174Z,96455.28
2023-04-12T16:29:33.772Z,96450.56
2023-04-12T16:32:02.787Z,96439.81
2023-04-12T16:34:31.886Z,96454.41
2023-04-12T16:37:00.801Z,96397.53
2023-04-12T16:39:29.390Z,96445.94
2023-04-12T16:41:58.004Z,96445.75
2023-04-12T16:44:27.964Z,96435.97
2023-04-12T16:46:56.686Z,96438.63
2023-04-12T16:49:26.817Z,96394.09
2023-04-12T16:51:55.473Z,96425.38
2023-04-12T16:54:24.232Z,96420.53
2023-04-12T16:56:53.129Z,96387.75
2023-04-12T16:59:21.902Z,96409.84
2023-04-12T17:01:52.448Z,96402.13
2023-04-12T17:04:21.197Z,96370.88
2023-04-12T17:06:50.201Z,96393.44
2023-04-12T17:09:18.729Z,96405.94
2023-04-12T17:11:47.513Z,96411.41
2023-04-12T17:14:16.820Z,96400.00
2023-04-12T17:16:45.523Z,96401.19
2023-04-12T17:19:15.555Z,96400.72
2023-04-12T17:21:45.112Z,96395.44
2023-04-12T17:24:13.858Z,96413.06
2023-04-12T17:26:42.921Z,96416.19
2023-04-12T17:29:11.555Z,96404.88
2023-04-12T17:31:41.382Z,96401.81
2023-04-12T17:34:10.217Z,96418.19
2023-04-12T17:36:42.527Z,96413.06
2023-04-12T17:39:11.761Z,96389.81
2023-04-12T17:41:41.388Z,96418.06
2023-04-12T17:44:10.345Z,96429.56
2023-04-12T17:46:38.957Z,96427.47
2023-04-12T17:49:09.138Z,96410.00
2023-04-12T17:51:37.790Z,96430.88
2023-04-12T17:54:08.103Z,96344.31
2023-04-12T17:56:36.987Z,96428.63
2023-04-12T17:59:05.923Z,96425.97
2023-04-12T18:01:36.824Z,96402.19
2023-04-12T18:04:07.491Z,96427.84
2023-04-12T18:06:36.359Z,96376.28
2023-04-12T18:09:07.339Z,96423.75
2023-04-12T18:11:39.183Z,96416.44
2023-04-12T18:14:08.042Z,96410.69
2023-04-12T18:16:37.899Z,96416.88
2023-04-12T18:19:08.552Z,96258.09
2023-04-12T18:21:37.589Z,96440.03
2023-04-12T18:24:07.159Z,96420.47
2023-04-12T18:26:37.262Z,96439.03
2023-04-12T18:29:06.041Z,96429.03
2023-04-12T18:31:35.800Z,96419.66
2023-04-12T18:34:04.550Z,96440.25
2023-04-12T18:36:33.421Z,96451.66
2023-04-12T18:39:02.241Z,96451.81
2023-04-12T18:41:32.870Z,96461.47
2023-04-12T18:44:03.092Z,96452.13
2023-04-12T18:46:31.777Z,96388.09
2023-04-12T18:49:00.381Z,96400.97
2023-04-12T18:51:29.262Z,96436.22
2023-04-12T18:53:59.385Z,96453.34
2023-04-12T18:56:28.254Z,96413.50
2023-04-12T18:58:57.391Z,96436.22
2023-04-12T19:01:27.486Z,96458.50
2023-04-12T19:03:57.495Z,96457.00
2023-04-12T19:06:27.493Z,96454.63
2023-04-12T19:08:56.345Z,96451.41
2023-04-12T19:11:24.992Z,96418.25
2023-04-12T19:13:53.748Z,96419.19
2023-04-12T19:16:22.512Z,96447.91
2023-04-12T19:18:52.668Z,96436.81
2023-04-12T19:21:21.342Z,96434.28
2023-04-12T19:23:50.544Z,96456.91
2023-04-12T19:26:19.263Z,96456.91
2023-04-12T19:28:47.864Z,96438.09
2023-04-12T19:31:16.602Z,96421.66
2023-04-12T19:33:59.047Z,96399.78
2023-04-12T19:36:29.806Z,96426.97
2023-04-12T19:38:58.295Z,96428.69
2023-04-12T19:41:26.731Z,96398.09
2023-04-12T19:43:55.289Z,96435.91
2023-04-12T19:46:23.598Z,96423.44
2023-04-12T19:48:52.807Z,96432.59
2023-04-12T19:51:21.079Z,96427.50
2023-04-12T19:53:53.244Z,96425.63
2023-04-12T19:56:23.947Z,96426.75
2023-04-12T19:58:54.728Z,96426.16
2023-04-12T20:01:22.995Z,96418.38
2023-04-12T20:03:51.242Z,96380.56
2023-04-12T20:06:19.682Z,96405.03
2023-04-12T20:08:47.938Z,96374.72
2023-04-12T20:11:17.665Z,96397.59
2023-04-12T20:13:46.342Z,96373.94
2023-04-12T20:16:14.636Z,96365.38
2023-04-12T20:18:42.876Z,96372.09
2023-04-12T20:21:11.233Z,96410.63
2023-04-12T20:23:39.425Z,96362.84
2023-04-12T20:26:08.902Z,96389.03
2023-04-12T20:28:38.868Z,96423.19
2023-04-12T20:31:07.145Z,96387.22
2023-04-12T20:33:35.328Z,96338.94
2023-04-12T20:36:03.590Z,96389.22
2023-04-12T20:38:31.973Z,96406.19
2023-04-12T20:41:00.171Z,96378.66
2023-04-12T20:43:28.482Z,96359.16
2023-04-12T20:45:58.137Z,96341.16
2023-04-12T20:48:26.476Z,96387.22
2023-04-12T20:50:56.403Z,96415.34
2023-04-12T20:53:24.655Z,96408.75
2023-04-12T20:55:53.318Z,96414.88
2023-04-12T20:58:21.594Z,96412.81
2023-04-12T21:00:49.816Z,96402.31
2023-04-12T21:03:19.675Z,96338.19
2023-04-12T21:05:50.531Z,96401.94
2023-04-12T21:08:18.739Z,96371.19
2023-04-12T21:10:48.189Z,96393.81
2023-04-12T21:13:16.420Z,96358.06
2023-04-12T21:15:44.528Z,96384.78
2023-04-12T21:18:12.686Z,96388.75
2023-04-12T21:20:42.700Z,96378.66
2023-04-12T21:23:11.906Z,96379.19
2023-04-12T21:25:40.445Z,96373.69
2023-04-12T21:28:08.598Z,96351.31
2023-04-12T21:30:37.238Z,96364.72
2023-04-12T21:33:05.463Z,96369.53
2023-04-12T21:35:33.691Z,96365.31
2023-04-12T21:38:03.319Z,96358.34
2023-04-12T21:40:31.449Z,96366.81
2023-04-12T21:42:59.711Z,96355.72
2023-04-12T21:45:28.268Z,96355.03
2023-04-12T21:47:57.095Z,96342.34
2023-04-12T21:50:25.570Z,96361.41
2023-04-12T21:52:55.101Z,96346.16
2023-04-12T21:55:24.905Z,96358.63
2023-04-12T21:57:53.106Z,96361.72
2023-04-12T22:00:21.316Z,96361.97
2023-04-12T22:02:49.648Z,96369.63
2023-04-12T22:05:18.149Z,96322.34
2023-04-12T22:07:46.300Z,96364.34
2023-04-12T22:10:15.024Z,96366.06
2023-04-12T22:12:50.638Z,96349.13
2023-04-12T22:15:19.368Z,96357.34
2023-04-12T22:17:47.830Z,96341.13
2023-04-12T22:20:16.148Z,96364.75
2023-04-12T22:22:44.326Z,96323.94
2023-04-12T22:25:15.443Z,96270.88
2023-04-12T22:27:46.572Z,96355.47
2023-04-12T22:30:16.009Z,96363.16
2023-04-12T22:32:44.276Z,96362.31
2023-04-12T22:35:12.911Z,96360.63
2023-04-12T22:37:41.568Z,96355.28
2023-04-12T22:40:12.531Z,96335.66
2023-04-12T22:42:46.963Z,96276.97
2023-04-12T22:45:18.237Z,96354.34
2023-04-12T22:47:47.695Z,96351.88
2023-04-12T22:50:16.089Z,96318.03
2023-04-12T22:52:44.219Z,96279.06
2023-04-12T22:55:14.531Z,96344.19
2023-04-12T22:57:42.961Z,96306.72
2023-04-12T23:00:16.535Z,96286.53
2023-04-12T23:02:48.723Z,96300.34
2023-04-12T23:05:17.771Z,96258.97
2023-04-12T23:07:46.028Z,96331.28
2023-04-12T23:10:14.190Z,96318.47
2023-04-12T23:12:42.370Z,96335.47
2023-04-12T23:15:11.318Z,96278.50
2023-04-12T23:17:39.635Z,96270.59
2023-04-12T23:20:13.313Z,96322.69
2023-04-12T23:22:57.231Z,96317.78
2023-04-12T23:25:38.062Z,96314.47
2023-04-12T23:28:07.684Z,96250.03
2023-04-12T23:30:35.911Z,96317.53
2023-04-12T23:33:04.554Z,96288.00
2023-04-12T23:35:38.939Z,96281.72
2023-04-12T23:38:07.263Z,96305.88
2023-04-12T23:40:36.132Z,96268.97
2023-04-12T23:43:04.308Z,96268.75
2023-04-12T23:45:33.094Z,96267.22
2023-04-12T23:48:01.657Z,96258.66
2023-04-12T23:50:30.454Z,96295.19
2023-04-12T23:53:00.035Z,96282.97
2023-04-12T23:55:27.915Z,96263.38
2023-04-12T23:57:56.054Z,96215.94
